Time;durP1;ratioP1;P1;durP2;ratioP2;P2;SDS_P1;SDS_P2;PMS_P1;PMS_P2;Temp;Humidity;BMP_temperature;BMP_pressure;BME280_temperature;BME280_humidity;BME280_pressure;Samples;Min_cycle;Max_cycle;Signal;HPM_P1;HPM_P2
2022/10/04 00:00:33;;;;;;;8.43;5.27;;;5.60;99.90;;;;;;5014049;28;20045;-81
2022/10/04 00:03:09;;;;;;;11.73;5.70;;;5.60;99.90;;;;;;5024497;28;20037;-81
2022/10/04 00:05:37;;;;;;;7.53;5.00;;;5.60;99.90;;;;;;5015313;28;20026;-81
2022/10/04 00:08:22;;;;;;;9.87;5.30;;;5.60;99.90;;;;;;5016263;28;20022;-81
2022/10/04 00:10:48;;;;;;;15.17;5.43;;;5.50;99.90;;;;;;5014853;28;20142;-81
2022/10/04 00:13:24;;;;;;;8.70;5.00;;;5.50;99.90;;;;;;5013233;28;20269;-81
2022/10/04 00:15:50;;;;;;;8.10;4.70;;;5.50;99.90;;;;;;5013274;28;20022;-81
2022/10/04 00:18:37;;;;;;;7.23;5.47;;;5.50;99.90;;;;;;5022189;28;20081;-81
2022/10/04 00:21:04;;;;;;;9.87;5.10;;;5.50;99.90;;;;;;5017895;28;20028;-81
2022/10/04 00:23:35;;;;;;;7.87;4.63;;;5.50;99.90;;;;;;5019459;28;20022;-81
2022/10/04 00:26:09;;;;;;;6.97;5.10;;;5.50;99.90;;;;;;5011428;28;20030;-81
2022/10/04 00:28:34;;;;;;;9.47;4.97;;;5.50;99.90;;;;;;5021275;28;20438;-81
2022/10/04 00:31:11;;;;;;;11.63;5.27;;;5.50;99.90;;;;;;5009967;28;20042;-81
2022/10/04 00:33:38;;;;;;;9.17;6.30;;;5.40;99.90;;;;;;5015217;28;20037;-81
2022/10/04 00:36:25;;;;;;;13.50;6.60;;;5.50;99.90;;;;;;5014557;28;20022;-81
2022/10/04 00:39:03;;;;;;;11.50;6.07;;;5.40;99.90;;;;;;5008573;28;20022;-81
2022/10/04 00:41:39;;;;;;;13.63;6.00;;;5.40;99.90;;;;;;5008779;28;20021;-81
2022/10/04 00:44:11;;;;;;;13.43;6.40;;;5.40;99.90;;;;;;5007958;28;20026;-81
2022/10/04 00:46:40;;;;;;;11.60;6.03;;;5.30;99.90;;;;;;5010252;28;20030;-81
2022/10/04 00:49:08;;;;;;;8.30;4.90;;;5.30;99.90;;;;;;5019653;28;20023;-81
2022/10/04 00:51:38;;;;;;;9.90;4.90;;;5.30;99.90;;;;;;5006668;28;20058;-81
2022/10/04 00:54:29;;;;;;;8.13;4.63;;;5.20;99.90;;;;;;5019279;28;20062;-81
2022/10/04 00:56:58;;;;;;;9.60;4.50;;;5.20;99.90;;;;;;5006553;28;20108;-81
2022/10/04 00:59:42;;;;;;;8.37;5.50;;;5.20;99.90;;;;;;5006561;28;20038;-81
2022/10/04 01:02:17;;;;;;;8.40;4.90;;;5.20;99.90;;;;;;5022299;28;20030;-81
2022/10/04 01:04:52;;;;;;;7.03;4.60;;;5.10;99.90;;;;;;5007165;28;20031;-81
2022/10/04 01:07:25;;;;;;;7.30;4.38;;;5.10;99.90;;;;;;5005254;28;20027;-81
2022/10/04 01:09:55;;;;;;;8.83;4.33;;;5.10;99.90;;;;;;5007340;28;20042;-81
2022/10/04 01:12:35;;;;;;;10.30;4.73;;;5.10;99.90;;;;;;5013486;28;20018;-81
2022/10/04 01:15:17;;;;;;;9.20;4.37;;;5.10;99.90;;;;;;5029564;28;20097;-81
2022/10/04 01:18:05;;;;;;;6.50;4.87;;;5.00;99.90;;;;;;4994672;28;20019;-81
2022/10/04 01:20:37;;;;;;;6.37;4.20;;;5.00;99.90;;;;;;5009784;28;20053;-81
2022/10/04 01:23:03;;;;;;;7.27;4.50;;;5.00;99.90;;;;;;5028142;28;20030;-81
2022/10/04 01:25:51;;;;;;;8.63;4.33;;;5.00;99.90;;;;;;5011320;28;20030;-81
2022/10/04 01:28:17;;;;;;;7.77;4.43;;;4.90;99.90;;;;;;5015418;28;20033;-81
2022/10/04 01:30:43;;;;;;;9.20;4.00;;;4.90;99.90;;;;;;5016417;28;20475;-81
2022/10/04 01:33:11;;;;;;;8.00;4.30;;;4.80;99.90;;;;;;5009495;28;20022;-81
2022/10/04 01:35:36;;;;;;;6.47;4.20;;;4.80;99.90;;;;;;5026719;28;20025;-80
2022/10/04 01:38:06;;;;;;;8.63;4.47;;;4.80;99.90;;;;;;5012627;28;20034;-81
2022/10/04 01:40:44;;;;;;;8.93;4.07;;;4.80;99.90;;;;;;5015844;28;20081;-81
2022/10/04 01:43:13;;;;;;;6.63;4.10;;;4.80;99.90;;;;;;5006689;28;20022;-81
2022/10/04 01:45:46;;;;;;;4.87;3.67;;;4.70;99.90;;;;;;5023535;28;20026;-81
2022/10/04 01:48:15;;;;;;;5.63;4.33;;;4.70;99.90;;;;;;5015217;28;20038;-81
2022/10/04 01:51:06;;;;;;;9.07;4.37;;;4.70;99.90;;;;;;5028319;28;20050;-80
2022/10/04 01:53:46;;;;;;;7.13;4.10;;;4.70;99.90;;;;;;5025954;28;20030;-81
2022/10/04 01:56:23;;;;;;;8.23;4.20;;;4.60;99.90;;;;;;5030586;28;20022;-81
2022/10/04 01:58:52;;;;;;;7.10;4.43;;;4.60;99.90;;;;;;5027030;28;20030;-80
2022/10/04 02:01:57;;;;;;;6.73;3.90;;;4.60;99.90;;;;;;5014320;28;20030;-80
2022/10/04 02:04:28;;;;;;;9.97;4.00;;;4.60;99.90;;;;;;5010583;28;20046;-81
2022/10/04 02:06:57;;;;;;;5.40;3.90;;;4.60;99.90;;;;;;5025372;28;20030;-81
2022/10/04 02:09:26;;;;;;;7.20;3.87;;;4.60;99.90;;;;;;5011277;28;20023;-81
2022/10/04 02:11:53;;;;;;;7.07;3.93;;;4.50;99.90;;;;;;5014169;28;20021;-81
2022/10/04 02:14:26;;;;;;;8.90;3.87;;;4.50;99.90;;;;;;5020704;28;20460;-80
2022/10/04 02:16:52;;;;;;;9.07;4.77;;;4.50;99.90;;;;;;5028742;28;20030;-80
2022/10/04 02:19:25;;;;;;;7.83;3.77;;;4.50;99.90;;;;;;5023771;28;20043;-80
2022/10/04 02:21:51;;;;;;;8.47;4.00;;;4.50;99.90;;;;;;5028967;28;20087;-80
2022/10/04 02:24:18;;;;;;;7.00;3.87;;;4.50;99.90;;;;;;5014745;28;20026;-80
2022/10/04 02:26:53;;;;;;;5.43;3.73;;;4.50;99.90;;;;;;5013910;28;20034;-80
2022/10/04 02:29:19;;;;;;;13.90;4.65;;;4.50;99.90;;;;;;5012406;28;20030;-80
2022/10/04 02:34:35;;;;;;;5.57;3.50;;;4.40;99.90;;;;;;5010805;28;20080;-80
2022/10/04 02:37:03;;;;;;;10.90;3.93;;;4.40;99.90;;;;;;5009023;28;20037;-81
2022/10/04 02:39:39;;;;;;;8.53;4.20;;;4.40;99.90;;;;;;5024672;28;20038;-80
2022/10/04 02:42:24;;;;;;;10.53;3.93;;;4.40;99.90;;;;;;5010906;28;20038;-80
2022/10/04 02:44:59;;;;;;;9.13;4.10;;;4.30;99.90;;;;;;4998944;28;20026;-80
2022/10/04 02:47:30;;;;;;;9.95;3.80;;;4.40;99.90;;;;;;5022281;28;20048;-80
2022/10/04 02:50:05;;;;;;;10.40;3.97;;;4.40;99.90;;;;;;5009536;28;20019;-81
2022/10/04 02:52:47;;;;;;;7.72;3.90;;;4.30;99.90;;;;;;5024739;28;20018;-80
2022/10/04 02:55:22;;;;;;;7.23;3.47;;;4.30;99.90;;;;;;5011482;28;20041;-80
2022/10/04 02:57:51;;;;;;;16.77;4.25;;;4.30;99.90;;;;;;5014456;28;20065;-80
2022/10/04 03:00:26;;;;;;;8.87;4.27;;;4.30;99.90;;;;;;5013636;28;20084;-77
2022/10/04 03:03:16;;;;;;;6.67;3.43;;;4.30;99.90;;;;;;4996819;28;20506;-77
2022/10/04 03:05:51;;;;;;;5.90;3.50;;;4.30;99.90;;;;;;5005388;28;20064;-77
2022/10/04 03:08:17;;;;;;;7.43;3.70;;;4.30;99.90;;;;;;5007936;28;20474;-77
2022/10/04 03:10:43;;;;;;;5.60;3.53;;;4.20;99.90;;;;;;4993594;28;20022;-77
2022/10/04 03:13:12;;;;;;;7.47;3.77;;;4.30;99.90;;;;;;5007149;28;20015;-77
2022/10/04 03:15:38;;;;;;;7.63;3.70;;;4.20;99.90;;;;;;5002589;28;20092;-77
2022/10/04 03:18:03;;;;;;;9.90;3.77;;;4.20;99.90;;;;;;4997474;28;20451;-77
2022/10/04 03:20:29;;;;;;;5.37;3.50;;;4.20;99.90;;;;;;5000481;28;20716;-77
2022/10/04 03:22:56;;;;;;;9.73;3.80;;;4.20;99.90;;;;;;4999318;28;20570;-77
2022/10/04 03:25:28;;;;;;;9.33;3.60;;;4.20;99.90;;;;;;5006811;28;20037;-77
2022/10/04 03:27:55;;;;;;;6.67;3.60;;;4.20;99.90;;;;;;4993193;28;20030;-77
2022/10/04 03:30:21;;;;;;;7.17;3.67;;;4.20;99.90;;;;;;5006630;28;20430;-77
2022/10/04 03:32:47;;;;;;;4.80;3.30;;;4.20;99.90;;;;;;5003588;28;20026;-77
2022/10/04 03:35:33;;;;;;;4.97;3.30;;;4.10;99.90;;;;;;4995624;28;20030;-77
2022/10/04 03:38:02;;;;;;;;;;;4.10;99.90;;;;;;4993290;28;20551;-76
2022/10/04 03:40:31;;;;;;;6.90;3.77;;;4.10;99.90;;;;;;5006577;28;20368;-77
2022/10/04 03:43:00;;;;;;;9.50;3.70;;;4.10;99.90;;;;;;4992830;28;20062;-77
2022/10/04 03:45:27;;;;;;;6.80;3.50;;;4.10;99.90;;;;;;4992946;28;20022;-77
2022/10/04 03:48:00;;;;;;;6.47;3.77;;;4.10;99.90;;;;;;4997934;28;20071;-77
2022/10/04 03:50:32;;;;;;;8.47;3.73;;;4.10;99.90;;;;;;5000354;28;20030;-77
2022/10/04 03:53:03;;;;;;;13.77;4.60;;;4.10;99.90;;;;;;4992686;28;20088;-76
2022/10/04 03:55:35;;;;;;;6.20;3.40;;;4.10;99.90;;;;;;4992908;28;20026;-76
2022/10/04 03:58:01;;;;;;;6.37;3.57;;;4.00;99.90;;;;;;4992511;28;20049;-76
2022/10/04 04:00:27;;;;;;;8.27;3.63;;;4.00;99.90;;;;;;5002971;28;20442;-77
2022/10/04 04:02:59;;;;;;;7.60;3.40;;;4.00;99.90;;;;;;4995335;28;20536;-76
2022/10/04 04:05:34;;;;;;;5.10;3.60;;;4.00;99.90;;;;;;4992381;28;20425;-77
2022/10/04 04:08:13;;;;;;;6.00;3.65;;;4.00;99.90;;;;;;5006322;28;20033;-77
2022/10/04 04:10:45;;;;;;;7.83;3.80;;;4.00;99.90;;;;;;4992456;28;20495;-76
2022/10/04 04:13:49;;;;;;;5.47;3.90;;;3.90;99.90;;;;;;4992459;28;20027;-76
2022/10/04 04:16:17;;;;;;;7.33;3.97;;;3.90;99.90;;;;;;4985083;28;20386;-78
2022/10/04 04:18:45;;;;;;;6.97;4.13;;;3.90;99.90;;;;;;4993914;28;20027;-78
2022/10/04 04:21:17;;;;;;;6.70;4.23;;;3.90;99.90;;;;;;4994027;28;20026;-76
2022/10/04 04:23:49;;;;;;;22.30;13.77;;;3.80;99.90;;;;;;4993907;28;20019;-76
2022/10/04 04:26:21;;;;;;;11.80;5.77;;;3.80;99.90;;;;;;4994468;28;20312;-76
2022/10/04 04:28:53;;;;;;;9.13;4.23;;;3.80;99.90;;;;;;4992094;28;20041;-76
2022/10/04 04:31:22;;;;;;;11.13;4.10;;;3.80;99.90;;;;;;4993383;28;20511;-76
2022/10/04 04:34:01;;;;;;;5.93;3.93;;;3.80;99.90;;;;;;4992628;28;20018;-76
2022/10/04 04:36:29;;;;;;;8.17;4.23;;;3.80;99.90;;;;;;4993457;28;20605;-76
2022/10/04 04:39:40;;;;;;;8.67;5.03;;;3.70;99.90;;;;;;4993355;28;20467;-76
2022/10/04 04:42:23;;;;;;;11.73;5.60;;;3.70;99.90;;;;;;4993593;28;20374;-76
2022/10/04 04:44:52;;;;;;;10.77;6.30;;;3.70;99.90;;;;;;4993461;28;20061;-76
2022/10/04 04:47:32;;;;;;;9.77;4.20;;;3.70;99.90;;;;;;4993447;28;20028;-76
2022/10/04 04:50:14;;;;;;;6.30;4.57;;;3.70;99.90;;;;;;4978530;28;20384;-76
2022/10/04 04:52:43;;;;;;;9.77;4.67;;;3.70;99.90;;;;;;4983308;28;20364;-76
2022/10/04 04:55:25;;;;;;;6.63;4.30;;;3.60;99.90;;;;;;4993612;28;20041;-76
2022/10/04 04:57:54;;;;;;;6.73;4.13;;;3.60;99.90;;;;;;4985462;28;20511;-76
2022/10/04 05:00:27;;;;;;;8.57;4.23;;;3.60;99.90;;;;;;4985628;28;20044;-77
2022/10/04 05:02:57;;;;;;;8.97;4.30;;;3.60;99.90;;;;;;4988029;28;20022;-77
2022/10/04 05:05:26;;;;;;;6.77;4.97;;;3.60;99.90;;;;;;4992376;28;20037;-77
2022/10/04 05:08:12;;;;;;;7.60;4.37;;;3.60;99.90;;;;;;4993543;28;20077;-77
2022/10/04 05:10:41;;;;;;;7.77;4.37;;;3.60;99.90;;;;;;4993611;28;20106;-77
2022/10/04 05:13:15;;;;;;;7.97;5.30;;;3.60;99.90;;;;;;4996811;28;20370;-77
2022/10/04 05:15:43;;;;;;;8.80;4.47;;;3.60;99.90;;;;;;4995155;23;20146;-77
2022/10/04 05:18:31;;;;;;;8.83;3.90;;;3.60;99.90;;;;;;4982863;28;20022;-78
2022/10/04 05:21:03;;;;;;;5.97;4.30;;;3.60;99.90;;;;;;4977914;28;20494;-75
2022/10/04 05:23:29;;;;;;;7.23;3.80;;;3.60;99.90;;;;;;4977463;28;20034;-76
2022/10/04 05:25:55;;;;;;;7.60;3.87;;;3.60;99.90;;;;;;4977471;28;20023;-77
2022/10/04 05:28:20;;;;;;;6.63;3.80;;;3.60;99.90;;;;;;4977994;28;20472;-77
2022/10/04 05:31:17;;;;;;;6.73;4.70;;;3.60;99.90;;;;;;4977375;28;20034;-77
2022/10/04 05:33:52;;;;;;;9.70;4.70;;;3.60;99.90;;;;;;4977606;28;20110;-77
2022/10/04 05:36:33;;;;;;;9.57;5.70;;;3.70;99.90;;;;;;4977359;28;20135;-78
2022/10/04 05:39:06;;;;;;;8.43;5.40;;;3.70;99.90;;;;;;4977182;28;20066;-78
2022/10/04 05:41:51;;;;;;;8.87;5.43;;;3.80;99.90;;;;;;4977227;28;20413;-78
2022/10/04 05:44:28;;;;;;;12.07;5.17;;;3.80;99.90;;;;;;4972242;28;20038;-77
2022/10/04 05:46:58;;;;;;;9.53;4.80;;;3.90;99.90;;;;;;4974405;28;20058;-77
2022/10/04 05:49:27;;;;;;;8.10;4.60;;;3.90;99.90;;;;;;4972106;28;20102;-75
2022/10/04 05:52:02;;;;;;;11.50;4.60;;;4.00;99.90;;;;;;4985749;28;20049;-75
2022/10/04 05:54:31;;;;;;;7.68;4.45;;;4.10;99.90;;;;;;4981774;28;20050;-75
2022/10/04 05:57:41;;;;;;;9.53;5.00;;;4.10;99.90;;;;;;4994470;28;20382;-75
2022/10/04 06:00:20;;;;;;;6.33;4.47;;;4.20;99.90;;;;;;4957645;28;20155;-77
2022/10/04 06:02:51;;;;;;;7.80;4.13;;;4.30;99.90;;;;;;4957830;28;20031;-77
2022/10/04 06:05:47;;;;;;;7.17;4.10;;;4.40;99.90;;;;;;4957665;29;20376;-77
2022/10/04 06:08:49;;;;;;;4.85;3.70;;;4.50;99.90;;;;;;4971721;28;20582;-77
2022/10/04 06:11:30;;;;;;;6.23;3.50;;;4.50;99.90;;;;;;4962848;28;20031;-77
2022/10/04 06:14:04;;;;;;;6.77;3.43;;;4.60;99.90;;;;;;4976849;28;20055;-77
2022/10/04 06:16:48;;;;;;;6.03;4.20;;;4.70;99.90;;;;;;4975886;28;20027;-77
2022/10/04 06:19:29;;;;;;;7.50;4.50;;;4.80;99.90;;;;;;4976620;28;20019;-77
2022/10/04 06:22:05;;;;;;;6.87;3.73;;;4.90;99.90;;;;;;4976440;28;20018;-80
2022/10/04 06:24:37;;;;;;;6.40;4.33;;;5.00;99.90;;;;;;4975297;28;20019;-80
2022/10/04 06:27:17;;;;;;;10.37;4.90;;;5.00;99.90;;;;;;4976166;28;20030;-77
2022/10/04 06:29:55;;;;;;;8.33;4.30;;;5.00;99.90;;;;;;4976246;28;20023;-77
2022/10/04 06:32:44;;;;;;;8.03;4.33;;;5.10;99.90;;;;;;4964015;28;20105;-77
2022/10/04 06:35:16;;;;;;;7.40;3.83;;;5.10;99.90;;;;;;4976424;28;20089;-77
2022/10/04 06:37:48;;;;;;;12.20;5.10;;;5.10;99.90;;;;;;4976336;28;20023;-77
2022/10/04 06:40:38;;;;;;;6.23;3.70;;;5.20;99.90;;;;;;4975724;28;20364;-77
2022/10/04 06:43:22;;;;;;;7.90;4.80;;;5.20;99.90;;;;;;4957325;29;20028;-77
2022/10/04 06:46:36;;;;;;;9.07;4.30;;;5.30;99.90;;;;;;4960814;28;20041;-77
2022/10/04 06:49:26;;;;;;;6.40;4.20;;;5.30;99.90;;;;;;4972462;28;20446;-79
2022/10/04 06:52:03;;;;;;;5.87;3.90;;;5.40;99.90;;;;;;4985421;28;20014;-79
2022/10/04 06:55:06;;;;;;;8.70;4.30;;;5.50;99.90;;;;;;4991881;28;20045;-79
2022/10/04 06:58:07;;;;;;;9.70;4.10;;;5.60;99.90;;;;;;4979936;28;20031;-82
2022/10/04 07:00:57;;;;;;;6.20;4.10;;;5.70;99.90;;;;;;4983093;28;20030;-79
2022/10/04 07:03:48;;;;;;;7.03;4.40;;;5.80;99.90;;;;;;4982248;28;20054;-79
2022/10/04 07:06:38;;;;;;;8.43;4.27;;;6.00;99.90;;;;;;4964845;28;20037;-79
2022/10/04 07:09:11;;;;;;;9.63;4.27;;;6.10;99.90;;;;;;4975775;28;20019;-80
2022/10/04 07:11:42;;;;;;;8.97;4.33;;;6.20;99.90;;;;;;4974320;28;20472;-80
2022/10/04 07:14:29;;;;;;;6.13;4.00;;;6.30;99.90;;;;;;4975589;28;20050;-80
2022/10/04 07:17:04;;;;;;;9.43;4.57;;;6.40;99.90;;;;;;4976011;28;20034;-80
2022/10/04 07:19:36;;;;;;;8.50;4.23;;;6.50;99.90;;;;;;4974126;28;20460;-80
2022/10/04 07:22:11;;;;;;;10.73;4.30;;;6.70;99.90;;;;;;4975686;28;20069;-80
2022/10/04 07:25:07;;;;;;;10.90;5.85;;;6.80;99.90;;;;;;4975376;28;20019;-80
2022/10/04 07:30:54;;;;;;;11.13;4.60;;;7.00;99.90;;;;;;4956351;28;20019;-80
2022/10/04 07:33:23;;;;;;;8.50;5.40;;;7.20;99.90;;;;;;4975245;28;20102;-80
2022/10/04 07:36:07;;;;;;;10.40;6.00;;;7.20;99.90;;;;;;4974803;28;20106;-80
2022/10/04 07:38:41;;;;;;;10.73;5.23;;;7.40;99.90;;;;;;4975527;28;20038;-81
2022/10/04 07:41:32;;;;;;;13.63;6.47;;;7.40;99.90;;;;;;4975352;28;20022;-78
2022/10/04 07:44:03;;;;;;;12.57;6.00;;;7.60;99.90;;;;;;4935317;28;20070;-77
2022/10/04 07:46:41;;;;;;;10.80;5.87;;;7.70;99.90;;;;;;4974893;28;20023;-78
2022/10/04 07:49:18;;;;;;;12.37;6.40;;;7.80;99.90;;;;;;4974930;28;20049;-79
2022/10/04 07:52:02;;;;;;;9.70;5.70;;;7.90;99.90;;;;;;4975910;28;20037;-83
2022/10/04 07:54:56;;;;;;;11.83;6.37;;;8.10;99.90;;;;;;4985257;28;20098;-83
2022/10/04 07:57:51;;;;;;;12.17;6.20;;;8.30;99.90;;;;;;4958952;28;20058;-83
2022/10/04 08:00:21;;;;;;;14.23;7.40;;;8.50;99.90;;;;;;4980541;28;20038;-83
2022/10/04 08:03:11;;;;;;;13.70;7.00;;;8.60;99.90;;;;;;4984666;28;20027;-83
2022/10/04 08:05:46;;;;;;;13.50;6.70;;;8.70;99.90;;;;;;4984013;28;20380;-83
2022/10/04 08:08:50;;;;;;;13.55;7.05;;;8.90;99.90;;;;;;4984526;28;20106;-83
2022/10/04 08:11:42;;;;;;;16.50;6.83;;;9.00;99.90;;;;;;4982458;28;20049;-83
2022/10/04 08:14:39;;;;;;;41.00;28.53;;;9.20;99.90;;;;;;4982823;28;20042;-83
2022/10/04 08:17:13;;;;;;;16.77;8.60;;;9.40;99.90;;;;;;4980871;28;20027;-82
2022/10/04 08:20:15;;;;;;;15.30;7.97;;;9.60;99.90;;;;;;4974031;28;20477;-82
2022/10/04 08:23:14;;;;;;;16.40;7.67;;;9.70;99.90;;;;;;4973867;28;20026;-82
2022/10/04 08:26:01;;;;;;;15.00;7.77;;;10.00;99.90;;;;;;4934937;28;20042;-82
2022/10/04 08:32:08;;;;;;;16.43;7.60;;;10.30;99.90;;;;;;4975914;28;20041;-82
2022/10/04 08:34:43;;;;;;;19.60;7.63;;;10.60;99.90;;;;;;4981973;28;20053;-82
2022/10/04 08:37:12;;;;;;;;;;;10.70;99.90;;;;;;4988106;28;20030;-82
2022/10/04 08:40:13;;;;;;;17.90;7.63;;;10.80;99.90;;;;;;4974201;28;19906;-82
2022/10/04 08:43:12;;;;;;;13.57;7.65;;;11.00;99.90;;;;;;4966339;28;20041;-80
2022/10/04 08:46:03;;;;;;;12.70;6.70;;;11.20;99.90;;;;;;4968990;28;20030;-80
2022/10/04 08:48:52;;;;;;;13.50;6.63;;;11.40;99.90;;;;;;4975589;28;20026;-82
2022/10/04 08:52:00;;;;;;;14.18;6.88;;;11.50;99.90;;;;;;4978178;28;20034;-82
2022/10/04 08:54:45;;;;;;;15.80;7.55;;;11.70;99.90;;;;;;4991571;28;20030;-83
2022/10/04 08:57:14;;;;;;;11.75;5.88;;;11.90;99.90;;;;;;4978177;28;20109;-80
2022/10/04 09:00:06;;;;;;;13.82;6.78;;;12.10;99.90;;;;;;4978040;28;20407;-83
2022/10/04 09:03:04;;;;;;;12.65;6.15;;;12.10;99.90;;;;;;4978120;28;20046;-83
2022/10/04 09:05:55;;;;;;;19.20;7.00;;;12.20;99.90;;;;;;4966092;28;20045;-83
2022/10/04 09:08:53;;;;;;;11.13;6.00;;;12.40;99.90;;;;;;4978207;28;20027;-83
2022/10/04 09:11:50;;;;;;;10.98;6.13;;;12.60;99.90;;;;;;4978122;28;20030;-83
2022/10/04 09:14:44;;;;;;;9.80;6.13;;;12.80;99.90;;;;;;4978298;28;20050;-84
2022/10/04 09:17:29;;;;;;;9.75;5.20;;;12.90;99.90;;;;;;4978924;28;20061;-84
2022/10/04 09:20:12;;;;;;;11.13;4.63;;;13.00;99.90;;;;;;4978393;28;20041;-84
2022/10/04 09:22:55;;;;;;;9.88;5.20;;;13.20;99.90;;;;;;4978353;28;20049;-84
2022/10/04 09:25:33;;;;;;;12.82;6.13;;;13.30;99.90;;;;;;4978240;28;20031;-84
2022/10/04 09:28:21;;;;;;;8.10;4.93;;;13.30;99.90;;;;;;4978438;28;20038;-84
2022/10/04 09:31:05;;;;;;;8.32;3.95;;;13.30;99.90;;;;;;4978647;28;20114;-84
2022/10/04 09:33:30;;;;;;;9.50;4.22;;;13.40;99.90;;;;;;4978347;28;20440;-84
2022/10/04 09:36:43;;;;;;;10.38;4.18;;;13.40;99.90;;;;;;4977045;28;20046;-83
2022/10/04 09:39:18;;;;;;;7.70;4.00;;;13.40;99.90;;;;;;4968607;28;20105;-83
2022/10/04 09:42:02;;;;;;;17.88;4.45;;;13.50;99.90;;;;;;4996814;28;20060;-83
2022/10/04 09:44:32;;;;;;;8.75;4.00;;;13.60;99.90;;;;;;4978123;28;20030;-80
2022/10/04 09:47:39;;;;;;;9.00;4.00;;;13.70;99.90;;;;;;4977623;28;20522;-81
2022/10/04 09:50:41;;;;;;;8.10;4.20;;;13.80;99.90;;;;;;4977100;28;20030;-81
2022/10/04 09:53:22;;;;;;;6.35;3.33;;;14.00;99.90;;;;;;4977154;28;20031;-81
2022/10/04 09:55:57;;;;;;;7.80;3.88;;;14.10;99.90;;;;;;4975689;28;20073;-80
2022/10/04 09:58:27;;;;;;;;;;;14.20;99.90;;;;;;4975876;28;20089;-81
2022/10/04 10:01:32;;;;;;;9.48;4.07;;;14.20;99.90;;;;;;4975524;28;19910;-81
2022/10/04 10:04:23;;;;;;;7.88;4.10;;;14.30;99.90;;;;;;4966450;28;20114;-80
2022/10/04 10:06:49;;;;;;;11.60;4.95;;;14.40;99.90;;;;;;4964544;28;20114;-81
2022/10/04 10:15:26;;;;;;;9.40;4.18;;;14.50;99.90;;;;;;4976125;28;20102;-81
2022/10/04 10:17:57;;;;;;;9.90;4.43;;;14.60;99.90;;;;;;4974637;28;20077;-80
2022/10/04 10:20:53;;;;;;;9.65;5.15;;;14.60;99.90;;;;;;4975047;28;20885;-81
2022/10/04 10:23:36;;;;;;;9.77;4.35;;;14.50;99.90;;;;;;4975258;28;20031;-81
2022/10/04 10:26:34;;;;;;;9.57;4.60;;;14.50;99.90;;;;;;4975577;28;20031;-83
2022/10/04 10:29:25;;;;;;;10.35;4.97;;;14.60;99.90;;;;;;4976141;28;20031;-83
2022/10/04 10:32:19;;;;;;;9.93;4.50;;;14.50;99.90;;;;;;4979466;28;20503;-82
2022/10/04 10:35:36;;;;;;;8.93;4.45;;;14.50;99.90;;;;;;4984973;28;20019;-81
2022/10/04 10:38:39;;;;;;;11.07;4.30;;;14.50;99.90;;;;;;4942787;28;20037;-82
2022/10/04 10:41:24;;;;;;;8.82;3.90;;;14.60;99.90;;;;;;4980377;28;20029;-81
2022/10/04 10:43:50;;;;;;;12.15;5.20;;;14.70;99.90;;;;;;4980950;28;20082;-81
2022/10/04 10:46:34;;;;;;;9.02;5.10;;;14.80;99.90;;;;;;4967145;28;20026;-81
2022/10/04 10:49:30;;;;;;;11.68;5.80;;;15.00;99.90;;;;;;4994000;28;20054;-81
2022/10/04 10:52:04;;;;;;;21.58;13.57;;;15.10;99.90;;;;;;4994194;28;20026;-81
2022/10/04 10:54:52;;;;;;;14.45;6.45;;;15.20;99.90;;;;;;4989419;28;20029;-80
2022/10/04 10:57:42;;;;;;;14.68;5.35;;;15.30;99.90;;;;;;4980666;28;20030;-81
2022/10/04 11:00:21;;;;;;;8.55;3.70;;;15.30;99.90;;;;;;4982300;28;20030;-81
2022/10/04 11:03:11;;;;;;;14.50;4.60;;;15.40;99.90;;;;;;4987744;28;20023;-81
2022/10/04 11:05:56;;;;;;;11.15;4.65;;;15.50;99.90;;;;;;4974568;28;20027;-81
2022/10/04 11:09:00;;;;;;;9.55;5.25;;;15.40;99.90;;;;;;4979044;28;20030;-81
2022/10/04 11:11:56;;;;;;;15.52;4.30;;;15.30;99.90;;;;;;4989167;28;20029;-81
2022/10/04 11:15:02;;;;;;;9.27;4.00;;;15.30;99.90;;;;;;4980610;28;20500;-81
2022/10/04 11:17:45;;;;;;;10.00;4.13;;;15.50;99.90;;;;;;4974648;28;20031;-82
2022/10/04 11:20:49;;;;;;;6.43;3.95;;;15.60;99.90;;;;;;4975459;28;20044;-83
2022/10/04 11:23:27;;;;;;;10.68;4.18;;;15.70;99.90;;;;;;4975550;28;20033;-82
2022/10/04 11:26:16;;;;;;;8.07;3.47;;;15.70;99.90;;;;;;4975628;28;20046;-82
2022/10/04 11:28:45;;;;;;;11.60;4.00;;;15.80;99.90;;;;;;4975202;28;20104;-82
2022/10/04 11:31:17;;;;;;;7.97;3.78;;;15.90;99.90;;;;;;4975479;28;20098;-82
2022/10/04 11:34:10;;;;;;;12.68;3.97;;;16.10;99.90;;;;;;4975057;28;20336;-82
2022/10/04 11:36:44;;;;;;;8.52;4.20;;;16.30;99.90;;;;;;4947029;28;20027;-82
2022/10/04 11:39:47;;;;;;;11.23;4.18;;;16.60;99.90;;;;;;4975385;28;20054;-82
2022/10/04 11:42:59;;;;;;;6.28;3.38;;;16.90;99.90;;;;;;4975381;28;20118;-82
2022/10/04 11:45:55;;;;;;;9.15;4.13;;;17.10;99.90;;;;;;4986710;28;20031;-81
2022/10/04 11:48:24;;;;;;;11.07;5.07;;;17.20;99.90;;;;;;4963138;28;20114;-82
2022/10/04 11:51:09;;;;;;;9.25;3.88;;;17.50;99.90;;;;;;4987453;28;20105;-81
2022/10/04 11:53:57;;;;;;;9.95;3.58;;;17.60;99.90;;;;;;4993004;28;20026;-81
2022/10/04 11:56:32;;;;;;;6.43;3.50;;;17.70;99.90;;;;;;4985212;28;20039;-81
2022/10/04 11:59:04;;;;;;;5.10;3.15;;;17.80;99.90;;;;;;4973610;28;20030;-81
2022/10/04 12:01:48;;;;;;;10.13;4.28;;;18.10;99.90;;;;;;4992124;28;20033;-82
2022/10/04 12:04:43;;;;;;;8.10;3.60;;;18.20;99.90;;;;;;4981168;28;20062;-82
2022/10/04 12:07:34;;;;;;;8.98;3.88;;;18.10;99.90;;;;;;4973506;28;20030;-82
2022/10/04 12:10:02;;;;;;;10.25;3.00;;;17.90;99.90;;;;;;4986553;28;20023;-81
2022/10/04 12:12:46;;;;;;;5.95;2.70;;;17.90;99.90;;;;;;4973274;28;20112;-81
2022/10/04 12:15:44;;;;;;;7.65;2.85;;;17.70;99.90;;;;;;4969139;28;20622;-81
2022/10/04 12:18:31;;;;;;;7.30;2.80;;;17.70;99.90;;;;;;4985421;28;20022;-81
2022/10/04 12:21:32;;;;;;;10.75;2.75;;;17.80;99.90;;;;;;4993430;28;20387;-84
2022/10/04 12:24:04;;;;;;;8.95;3.13;;;17.90;99.90;;;;;;4993936;28;20026;-83
2022/10/04 12:26:58;;;;;;;7.55;3.00;;;18.10;99.90;;;;;;4990587;28;20551;-83
2022/10/04 12:29:44;;;;;;;6.97;2.80;;;18.40;99.90;;;;;;4974751;28;20023;-83
2022/10/04 12:32:18;;;;;;;5.15;2.55;;;18.30;99.90;;;;;;4944445;28;20074;-83
2022/10/04 12:35:03;;;;;;;5.28;2.38;;;18.20;99.90;;;;;;4978175;28;20018;-83
2022/10/04 12:37:39;;;;;;;5.73;3.27;;;18.40;99.90;;;;;;4974381;28;20309;-83
2022/10/04 12:40:31;;;;;;;8.38;3.67;;;18.50;99.90;;;;;;4974306;28;20266;-83
2022/10/04 12:43:11;;;;;;;8.38;2.70;;;18.60;99.90;;;;;;4974023;28;20085;-84
2022/10/04 12:45:51;;;;;;;6.80;2.60;;;18.60;99.90;;;;;;4974060;28;20030;-84
2022/10/04 12:48:37;;;;;;;10.40;3.05;;;18.70;99.90;;;;;;4973825;28;20118;-84
2022/10/04 12:51:09;;;;;;;7.50;2.53;;;18.90;99.90;;;;;;4973838;28;20106;-84
2022/10/04 12:54:22;;;;;;;7.28;2.85;;;19.00;99.90;;;;;;4973746;28;20027;-81
2022/10/04 12:57:21;;;;;;;5.80;2.53;;;19.20;99.90;;;;;;4932378;28;20046;-82
2022/10/04 12:59:53;;;;;;;6.20;2.25;;;19.10;99.90;;;;;;4973901;28;20038;-81
2022/10/04 13:02:37;;;;;;;9.10;2.67;;;19.10;99.90;;;;;;4985809;28;20029;-82
2022/10/04 13:05:29;;;;;;;10.35;3.30;;;19.00;99.90;;;;;;4973784;28;20093;-82
2022/10/04 13:08:29;;;;;;;7.65;2.88;;;19.10;99.90;;;;;;4973666;28;20102;-81
2022/10/04 13:11:08;;;;;;;8.60;2.65;;;19.10;99.90;;;;;;4974083;28;20352;-81
2022/10/04 13:14:06;;;;;;;4.57;2.40;;;19.20;99.90;;;;;;4974390;28;20400;-81
2022/10/04 13:17:02;;;;;;;4.15;2.20;;;19.30;99.90;;;;;;4941688;28;20047;-81
2022/10/04 13:19:30;;;;;;;6.07;2.22;;;19.10;99.90;;;;;;4985029;28;20489;-81
2022/10/04 13:22:22;;;;;;;4.35;2.20;;;18.90;99.90;;;;;;4991809;28;20066;-81
2022/10/04 13:25:06;;;;;;;9.07;2.00;;;18.90;99.90;;;;;;4985071;28;20045;-82
2022/10/04 13:28:01;;;;;;;4.13;2.27;;;19.20;99.90;;;;;;4973724;28;20054;-84
2022/10/04 13:30:36;;;;;;;5.05;2.40;;;18.90;99.90;;;;;;4973745;28;20258;-83
2022/10/04 13:33:27;;;;;;;6.18;1.92;;;18.80;99.90;;;;;;4973829;28;20353;-83
2022/10/04 13:35:58;;;;;;;3.92;1.92;;;18.80;99.90;;;;;;4981481;28;20157;-83
2022/10/04 13:38:44;;;;;;;4.10;2.13;;;18.70;99.90;;;;;;4996864;28;20034;-83
2022/10/04 13:41:17;;;;;;;5.32;2.30;;;18.70;99.90;;;;;;4969362;28;20071;-84
2022/10/04 13:44:25;;;;;;;4.40;2.22;;;18.70;99.90;;;;;;4996817;28;20034;-82
2022/10/04 13:47:12;;;;;;;6.13;2.22;;;18.80;99.90;;;;;;4986021;28;20019;-82
2022/10/04 13:49:54;;;;;;;7.82;2.45;;;18.70;99.90;;;;;;4990774;28;20491;-82
2022/10/04 13:58:47;;;;;;;5.10;2.20;;;18.60;99.90;;;;;;4977303;28;20081;-83
2022/10/04 14:01:30;;;;;;;7.80;2.80;;;18.40;99.90;;;;;;4977317;28;20106;-83
2022/10/04 14:04:01;;;;;;;7.35;2.70;;;18.30;99.90;;;;;;4976991;28;20030;-83
2022/10/04 14:06:42;;;;;;;7.93;2.40;;;18.00;99.90;;;;;;4979540;28;20073;-83
2022/10/04 14:09:33;;;;;;;6.43;2.50;;;17.90;99.90;;;;;;4993735;28;20030;-82
2022/10/04 14:12:37;;;;;;;6.90;2.50;;;17.80;99.90;;;;;;4987940;28;20027;-80
2022/10/04 14:15:18;;;;;;;6.32;2.55;;;17.70;99.90;;;;;;4993123;28;20070;-81
2022/10/04 14:18:14;;;;;;;7.60;2.45;;;17.80;99.90;;;;;;4992931;28;20391;-78
2022/10/04 14:21:17;;;;;;;6.93;2.40;;;17.80;99.90;;;;;;4975707;28;20022;-73